Time;durP1;ratioP1;P1;durP2;ratioP2;P2;SDS_P1;SDS_P2;PMS_P1;PMS_P2;Temp;Humidity;BMP_temperature;BMP_pressure;BME280_temperature;BME280_humidity;BME280_pressure;Samples;Min_cycle;Max_cycle;Signal;HPM_P1;HPM_P2
2022/10/05 00:02:21;;;;;;;8.73;3.65;;;;;;;9.89;95.61;99894.91;1659564;84;21134;-83
2022/10/05 00:04:50;;;;;;;7.23;3.57;;;;;;;9.87;95.52;99899.53;1660774;84;21601;-81
2022/10/05 00:07:20;;;;;;;4.10;3.67;;;;;;;9.93;95.22;99893.59;1660380;84;21106;-82
2022/10/05 00:09:56;;;;;;;6.60;3.90;;;;;;;10.01;94.83;99899.42;1673778;84;21144;-82
2022/10/05 00:12:23;;;;;;;6.28;3.52;;;;;;;9.98;94.84;99899.73;1691029;83;21035;-84
2022/10/05 00:14:54;;;;;;;6.70;3.55;;;;;;;9.92;94.91;99907.83;1651600;85;21213;-85
2022/10/05 00:17:24;;;;;;;3.92;3.60;;;;;;;9.99;94.75;99908.04;1635682;85;21037;-81
2022/10/05 00:19:51;;;;;;;5.78;3.90;;;;;;;10.09;94.42;99910.56;1688094;84;21619;-84
2022/10/05 00:22:23;;;;;;;6.62;3.55;;;;;;;10.12;94.46;99915.53;1692690;83;21029;-81
2022/10/05 00:25:00;;;;;;;;;;;;;;;10.09;94.45;99919.34;1681239;83;21073;-84
2022/10/05 00:27:35;;;;;;;8.13;3.37;;;;;;;10.12;94.34;99921.70;1681938;83;21786;-81
2022/10/05 00:30:16;;;;;;;11.33;4.65;;;;;;;10.17;93.86;99923.86;1698282;83;21073;-81
2022/10/05 00:32:44;;;;;;;6.50;3.75;;;;;;;10.13;94.02;99922.52;1707089;82;21066;-80
2022/10/05 00:35:13;;;;;;;3.70;3.20;;;;;;;10.06;94.03;99921.48;1711079;82;21337;-81
2022/10/05 00:37:40;;;;;;;4.67;3.60;;;;;;;10.06;93.95;99923.64;1706406;81;21091;-81
2022/10/05 00:40:22;;;;;;;7.12;4.97;;;;;;;10.13;93.71;99916.70;1711108;81;21120;-80
2022/10/05 00:43:27;;;;;;;4.33;3.50;;;;;;;10.10;93.46;99933.44;1697646;82;21041;-80
2022/10/05 00:45:59;;;;;;;5.05;3.22;;;;;;;10.04;93.79;99939.75;1697978;82;21083;-80
2022/10/05 00:48:57;;;;;;;5.22;3.20;;;;;;;10.08;93.55;99936.76;1688459;83;21058;-80
2022/10/05 00:51:27;;;;;;;5.60;3.95;;;;;;;10.11;93.34;99941.75;1701873;82;21014;-81
2022/10/05 00:54:17;;;;;;;4.75;3.00;;;;;;;10.06;93.41;99945.38;1693956;82;21524;-81
2022/10/05 00:57:27;;;;;;;6.50;3.15;;;;;;;10.05;93.34;99952.52;1679622;83;21545;-81
2022/10/05 01:00:14;;;;;;;4.22;3.25;;;;;;;10.12;93.16;99958.00;1661425;84;21035;-80
2022/10/05 01:03:01;;;;;;;6.85;3.37;;;;;;;10.03;93.08;99954.00;1687550;84;21070;-80
2022/10/05 01:05:52;;;;;;;4.08;3.20;;;;;;;9.99;93.33;99963.78;1687013;83;21076;-80
2022/10/05 01:09:05;;;;;;;4.72;3.17;;;;;;;10.08;93.22;99966.78;1683834;84;21149;-83
2022/10/05 01:11:58;;;;;;;7.65;3.77;;;;;;;10.09;93.17;99977.75;1690031;84;21076;-83
2022/10/05 01:14:32;;;;;;;4.72;3.30;;;;;;;10.02;93.11;99976.70;1688827;83;21112;-80
2022/10/05 01:17:18;;;;;;;3.77;2.92;;;;;;;10.06;92.83;99977.23;1673530;85;21065;-82
2022/10/05 01:20:07;;;;;;;5.08;3.20;;;;;;;10.09;92.51;99980.41;1690788;83;21047;-84
2022/10/05 01:23:02;;;;;;;4.97;3.08;;;;;;;10.01;92.43;99980.38;1680363;83;21500;-81
2022/10/05 01:25:49;;;;;;;6.40;3.22;;;;;;;9.98;92.38;99986.81;1681961;84;20982;-80
2022/10/05 01:28:36;;;;;;;4.30;3.17;;;;;;;10.01;92.10;99991.81;1677287;83;21028;-81
2022/10/05 01:31:36;;;;;;;6.00;3.65;;;;;;;9.96;92.18;99990.11;1687391;83;21008;-80
2022/10/05 01:34:23;;;;;;;5.85;3.20;;;;;;;9.93;92.26;100005.05;1674406;83;21043;-82
2022/10/05 01:37:18;;;;;;;7.03;2.85;;;;;;;9.95;92.12;100008.38;1687528;83;21394;-79
2022/10/05 01:40:11;;;;;;;6.83;3.50;;;;;;;10.00;91.91;100017.17;1688413;82;21010;-81
2022/10/05 01:43:04;;;;;;;5.15;3.15;;;;;;;9.94;91.95;100021.29;1688280;83;21074;-80
2022/10/05 01:45:45;;;;;;;5.70;2.92;;;;;;;9.94;91.87;100017.81;1682606;84;21436;-82
2022/10/05 01:48:29;;;;;;;4.15;3.45;;;;;;;9.97;91.64;100027.63;1657807;86;21084;-81
2022/10/05 01:51:28;;;;;;;4.42;3.05;;;;;;;9.92;91.86;100028.58;1686391;83;26655;-82
2022/10/05 01:54:09;;;;;;;5.22;3.37;;;;;;;9.88;92.12;100036.52;1696862;82;21037;-82
2022/10/05 01:56:44;;;;;;;4.70;3.08;;;;;;;9.93;91.59;100032.91;1698666;82;21089;-83
2022/10/05 01:59:36;;;;;;;10.43;3.70;;;;;;;9.99;91.60;100047.37;1705640;82;21544;-80
2022/10/05 02:02:12;;;;;;;3.92;2.67;;;;;;;9.96;91.59;100043.20;1699006;82;21030;-80
2022/10/05 02:04:46;;;;;;;6.33;2.95;;;;;;;9.92;91.66;100052.46;1663401;84;21198;-80
2022/10/05 02:07:23;;;;;;;3.52;2.98;;;;;;;10.00;91.49;100049.85;1663133;86;21123;-78
2022/10/05 02:09:55;;;;;;;8.13;4.42;;;;;;;10.01;91.21;100044.89;1653303;85;21143;-79
2022/10/05 02:12:27;;;;;;;4.85;3.55;;;;;;;9.99;91.15;100059.33;1658522;84;21022;-80
2022/10/05 02:14:59;;;;;;;5.05;3.45;;;;;;;10.00;90.91;100065.78;1642607;86;21044;-81
2022/10/05 02:17:33;;;;;;;3.77;2.52;;;;;;;10.06;90.80;100065.65;1669922;84;21123;-81
2022/10/05 02:20:05;;;;;;;4.85;3.92;;;;;;;10.01;90.67;100067.45;1657448;84;21130;-80
2022/10/05 02:22:40;;;;;;;5.60;3.42;;;;;;;9.95;90.84;100075.22;1661426;85;21045;-80
2022/10/05 02:25:16;;;;;;;6.35;3.67;;;;;;;9.98;90.92;100072.24;1628070;85;21061;-79
2022/10/05 02:28:09;;;;;;;5.78;4.60;;;;;;;10.06;90.51;100079.42;1645377;81;21109;-81
2022/10/05 02:30:44;;;;;;;5.45;4.08;;;;;;;9.99;90.67;100081.37;1661667;83;20943;-81
2022/10/05 02:33:29;;;;;;;6.08;3.10;;;;;;;9.90;90.77;100080.98;1661678;81;21146;-82
2022/10/05 02:36:20;;;;;;;5.65;3.62;;;;;;;9.93;90.71;100082.01;1662041;83;21127;-83
2022/10/05 02:39:12;;;;;;;5.67;3.22;;;;;;;9.97;90.35;100087.84;1664930;84;21116;-81
2022/10/05 02:42:07;;;;;;;5.75;3.50;;;;;;;9.89;90.43;100091.27;1660226;84;21103;-82
2022/10/05 02:44:58;;;;;;;5.12;3.40;;;;;;;9.82;90.72;100099.00;1661970;84;21166;-80
2022/10/05 02:47:42;;;;;;;8.03;3.27;;;;;;;9.84;90.43;100089.56;1666300;84;21166;-80
2022/10/05 02:50:30;;;;;;;5.92;3.55;;;;;;;9.86;90.14;100092.90;1657455;84;21681;-79
2022/10/05 02:53:11;;;;;;;5.65;3.50;;;;;;;9.72;90.33;100091.64;1659189;84;21129;-78
2022/10/05 02:56:11;;;;;;;5.87;3.55;;;;;;;9.62;90.76;100090.91;1663203;85;21150;-79
2022/10/05 02:59:15;;;;;;;6.47;4.12;;;;;;;9.64;90.63;100092.91;1701425;82;21246;-79
2022/10/05 03:01:48;;;;;;;;;;;;;;;9.67;90.86;100091.76;1702466;82;21088;-81
2022/10/05 03:04:44;;;;;;;5.37;3.90;;;;;;;9.60;91.17;100092.38;1702033;82;20207;-80
2022/10/05 03:07:33;;;;;;;4.10;3.50;;;;;;;9.55;91.23;100094.64;1702699;82;21099;-81
2022/10/05 03:10:18;;;;;;;3.95;2.72;;;;;;;9.59;91.04;100094.67;1696153;82;21574;-80
2022/10/05 03:13:31;;;;;;;4.70;3.22;;;;;;;9.65;90.87;100095.38;1700289;82;21917;-82
2022/10/05 03:16:33;;;;;;;4.15;3.40;;;;;;;9.63;90.90;100103.16;1673479;84;20961;-80
2022/10/05 03:19:45;;;;;;;6.83;3.10;;;;;;;9.54;90.82;100104.08;1704253;82;21052;-82
2022/10/05 03:22:37;;;;;;;7.90;2.85;;;;;;;9.57;90.62;100118.37;1708507;82;21040;-81
2022/10/05 03:25:28;;;;;;;5.90;3.30;;;;;;;9.55;90.54;100124.32;1704990;82;21022;-80
2022/10/05 03:28:33;;;;;;;4.33;3.02;;;;;;;9.53;90.79;100128.95;1681937;84;21621;-80
2022/10/05 03:31:17;;;;;;;5.55;3.00;;;;;;;9.60;90.73;100133.96;1708364;82;21225;-79
2022/10/05 03:33:55;;;;;;;6.72;3.25;;;;;;;9.69;90.38;100122.95;1687954;83;21571;-80
2022/10/05 03:36:39;;;;;;;4.03;3.60;;;;;;;9.62;90.35;100134.67;1702399;82;21198;-80
2022/10/05 03:39:35;;;;;;;7.78;3.15;;;;;;;9.55;90.48;100130.45;1688088;82;21024;-78
2022/10/05 03:42:31;;;;;;;5.15;3.40;;;;;;;9.59;90.35;100137.12;1703278;82;21264;-82
2022/10/05 03:45:15;;;;;;;6.58;4.08;;;;;;;9.64;90.17;100136.67;1701581;84;21027;-82
2022/10/05 03:48:02;;;;;;;5.25;3.35;;;;;;;9.59;90.04;100136.29;1692825;82;21044;-80
2022/10/05 03:51:06;;;;;;;5.17;2.98;;;;;;;9.53;90.02;100137.73;1703753;82;21058;-81
2022/10/05 03:53:50;;;;;;;3.77;3.37;;;;;;;9.63;89.83;100145.11;1705213;82;21059;-82
2022/10/05 03:56:35;;;;;;;4.37;2.87;;;;;;;9.61;89.75;100143.59;1704235;82;21130;-77
2022/10/05 03:59:20;;;;;;;3.83;2.77;;;;;;;9.51;89.93;100137.55;1703069;82;21102;-79
2022/10/05 04:01:58;;;;;;;6.12;2.80;;;;;;;9.52;90.03;100138.73;1702655;82;21068;-81
2022/10/05 04:04:42;;;;;;;5.60;3.75;;;;;;;9.55;90.19;100145.04;1701845;83;21003;-77
2022/10/05 04:07:13;;;;;;;4.15;3.62;;;;;;;9.48;90.21;100145.30;1702315;82;21071;-80
2022/10/05 04:09:42;;;;;;;3.95;2.90;;;;;;;9.41;90.59;100150.38;1703286;82;21123;-79
2022/10/05 04:12:36;;;;;;;6.08;3.20;;;;;;;9.47;90.73;100154.75;1674954;84;21183;-82
2022/10/05 04:15:24;;;;;;;4.53;3.40;;;;;;;9.50;90.62;100149.95;1703594;82;21034;-81
2022/10/05 04:17:57;;;;;;;7.67;3.65;;;;;;;9.44;90.66;100144.79;1697780;82;21083;-79
2022/10/05 04:20:44;;;;;;;7.95;3.02;;;;;;;9.38;90.84;100153.32;1706705;82;21010;-82
2022/10/05 04:23:29;;;;;;;4.85;3.45;;;;;;;9.42;90.64;100153.86;1700347;82;21241;-82
2022/10/05 04:26:00;;;;;;;5.30;3.08;;;;;;;9.36;90.61;100151.81;1702408;82;21041;-79
2022/10/05 04:30:19;;;;;;;3.72;3.42;;;;;;;9.22;91.11;100156.64;1828403;77;28001;-78
2022/10/05 04:32:56;;;;;;;4.92;3.42;;;;;;;9.17;91.28;100162.87;1773349;79;21576;-80
2022/10/05 04:35:53;;;;;;;9.73;3.55;;;;;;;9.14;91.58;100168.48;1784213;79;21311;-80
2022/10/05 04:38:41;;;;;;;6.50;3.65;;;;;;;9.07;92.17;100176.68;1792826;80;20923;-80
2022/10/05 04:41:36;;;;;;;4.50;3.25;;;;;;;9.10;92.51;100177.72;1747653;78;21002;-80
2022/10/05 04:44:24;;;;;;;4.17;3.12;;;;;;;9.19;92.51;100179.49;1789415;79;21040;-78
2022/10/05 04:47:28;;;;;;;5.67;3.25;;;;;;;9.17;92.67;100184.58;1788298;80;21541;-79
2022/10/05 04:50:07;;;;;;;;;;;;;;;9.11;92.74;100183.35;1792028;79;21011;-78
2022/10/05 04:52:52;;;;;;;7.42;4.20;;;;;;;9.18;92.72;100196.86;1774839;79;20542;-77
2022/10/05 04:55:49;;;;;;;4.17;3.27;;;;;;;9.22;92.54;100200.38;1783362;79;20962;-78
2022/10/05 04:58:45;;;;;;;8.95;3.30;;;;;;;9.22;92.74;100204.86;1772939;79;21057;-74
2022/10/05 05:01:45;;;;;;;3.67;3.00;;;;;;;9.21;92.67;100204.03;1786413;78;21331;-78
2022/10/05 05:04:43;;;;;;;3.50;3.20;;;;;;;9.33;92.41;100213.08;1764561;78;21069;-77
2022/10/05 05:07:27;;;;;;;6.33;3.47;;;;;;;9.33;92.18;100227.20;1782828;79;21521;-77
2022/10/05 05:10:15;;;;;;;6.20;3.47;;;;;;;9.27;92.19;100230.91;1776778;79;20975;-75
2022/10/05 05:13:14;;;;;;;5.05;3.20;;;;;;;9.34;92.04;100234.16;1790714;80;21069;-76
2022/10/05 05:16:17;;;;;;;6.65;3.42;;;;;;;9.39;91.90;100233.23;1782038;79;21549;-78
2022/10/05 05:19:20;;;;;;;6.78;3.30;;;;;;;9.39;92.10;100241.69;1772612;78;21092;-80
2022/10/05 05:22:32;;;;;;;4.42;3.10;;;;;;;9.47;91.64;100237.80;1764211;78;21020;-79
2022/10/05 05:25:23;;;;;;;6.83;4.08;;;;;;;9.55;91.26;100236.55;1782927;79;21033;-80
2022/10/05 05:27:56;;;;;;;3.20;2.80;;;;;;;9.51;91.22;100237.00;1780995;79;20975;-79
2022/10/05 05:30:43;;;;;;;3.27;2.55;;;;;;;9.50;91.30;100246.76;1782199;79;21496;-80
2022/10/05 05:33:26;;;;;;;4.97;3.22;;;;;;;9.63;90.73;100249.89;1792696;80;21106;-82
2022/10/05 05:36:09;;;;;;;7.40;3.70;;;;;;;9.67;90.38;100251.75;1781449;80;21103;-81
2022/10/05 05:38:49;;;;;;;8.35;3.40;;;;;;;9.61;90.54;100247.05;1787030;80;21101;-82
2022/10/05 05:41:30;;;;;;;16.25;4.58;;;;;;;9.68;90.36;100256.56;1773280;80;21046;-82
2022/10/05 05:44:25;;;;;;;7.12;3.42;;;;;;;9.78;90.12;100266.14;1771291;80;21029;-80
2022/10/05 05:47:02;;;;;;;4.37;3.50;;;;;;;9.80;90.09;100261.52;1786280;80;21057;-80
2022/10/05 05:49:50;;;;;;;4.60;3.00;;;;;;;9.80;90.02;100263.34;1767987;80;21576;-80
2022/10/05 05:52:31;;;;;;;4.75;3.47;;;;;;;9.88;89.84;100271.88;1788560;80;21546;-81
2022/10/05 05:55:02;;;;;;;6.80;3.00;;;;;;;10.01;89.59;100271.84;1766308;79;21449;-82
2022/10/05 05:57:35;;;;;;;6.10;3.85;;;;;;;10.07;89.62;100273.56;1788783;80;21085;-78
2022/10/05 06:00:06;;;;;;;3.72;3.25;;;;;;;10.09;89.15;100278.22;1778475;80;21114;-78
2022/10/05 06:03:07;;;;;;;4.10;3.12;;;;;;;10.19;88.64;100281.13;1769491;80;21596;-76
2022/10/05 06:05:42;;;;;;;8.03;3.00;;;;;;;10.29;88.47;100278.89;1780808;79;21039;-75
2022/10/05 06:08:39;;;;;;;3.92;3.05;;;;;;;10.31;88.55;100287.06;1752273;80;21021;-77
2022/10/05 06:11:17;;;;;;;6.60;2.80;;;;;;;10.32;87.68;100287.92;1766876;80;21435;-76
2022/10/05 06:13:46;;;;;;;6.50;3.47;;;;;;;10.45;87.50;100292.34;1759263;80;21798;-76
2022/10/05 06:16:44;;;;;;;5.30;3.12;;;;;;;10.48;87.40;100292.02;1786110;79;21076;-74
2022/10/05 06:19:15;;;;;;;4.03;2.50;;;;;;;10.46;86.36;100306.45;1775949;80;21025;-74
2022/10/05 06:21:53;;;;;;;5.72;2.85;;;;;;;10.49;86.37;100307.45;1777871;79;21085;-74
2022/10/05 06:24:38;;;;;;;5.55;3.10;;;;;;;10.54;86.27;100307.34;1782617;80;21061;-75
2022/10/05 06:27:34;;;;;;;4.92;3.08;;;;;;;10.56;86.70;100315.16;1781837;79;21132;-76
2022/10/05 06:30:15;;;;;;;7.08;2.80;;;;;;;10.61;86.53;100308.40;1769336;80;21021;-76
2022/10/05 06:33:05;;;;;;;3.20;2.58;;;;;;;10.75;85.97;100312.81;1772170;80;21036;-74
2022/10/05 06:35:44;;;;;;;6.37;3.77;;;;;;;10.86;85.63;100322.37;1772301;79;21493;-74
2022/10/05 06:38:22;;;;;;;6.15;3.65;;;;;;;10.87;85.34;100316.88;1723905;83;21072;-76
2022/10/05 06:41:03;;;;;;;5.92;3.77;;;;;;;10.85;85.10;100322.84;1739412;81;21195;-76
2022/10/05 06:43:56;;;;;;;5.35;3.58;;;;;;;10.97;85.03;100330.92;1701368;83;21116;-75
2022/10/05 06:46:56;;;;;;;4.30;2.87;;;;;;;11.06;84.75;100331.80;1719323;81;21907;-77
2022/10/05 06:49:44;;;;;;;5.70;3.15;;;;;;;11.07;84.71;100329.48;1701670;82;21362;-74
2022/10/05 06:52:47;;;;;;;4.58;2.90;;;;;;;11.18;84.09;100335.87;1722906;82;21164;-73
2022/10/05 06:55:48;;;;;;;7.35;3.02;;;;;;;11.29;83.08;100331.27;1735507;80;21283;-73
2022/10/05 06:58:38;;;;;;;5.35;3.47;;;;;;;11.31;83.11;100336.75;1729698;80;21605;-73
2022/10/05 07:01:29;;;;;;;4.17;2.60;;;;;;;11.36;83.07;100338.45;1748996;80;21026;-73
2022/10/05 07:04:38;;;;;;;5.00;2.67;;;;;;;11.48;81.88;100328.36;1719230;81;21065;-74
2022/10/05 07:07:40;;;;;;;6.78;3.27;;;;;;;11.63;81.61;100335.73;1734088;81;21030;-74
2022/10/05 07:10:33;;;;;;;4.03;3.42;;;;;;;11.59;80.88;100331.25;1736146;82;21160;-74
2022/10/05 07:13:49;;;;;;;3.77;3.00;;;;;;;11.57;81.65;100342.05;1703690;82;21042;-75
2022/10/05 07:17:07;;;;;;;4.95;2.95;;;;;;;11.74;80.79;100346.09;1731817;81;21485;-74
2022/10/05 07:19:51;;;;;;;5.92;3.02;;;;;;;11.81;80.01;100349.78;1744071;81;21049;-75
2022/10/05 07:22:47;;;;;;;5.10;2.90;;;;;;;11.79;79.90;100359.76;1727344;82;21981;-74
2022/10/05 07:25:23;;;;;;;3.02;2.62;;;;;;;11.70;79.71;100362.87;1741775;81;21189;-75
2022/10/05 07:28:15;;;;;;;5.08;2.75;;;;;;;11.74;80.15;100352.74;1745227;80;21541;-76
2022/10/05 07:30:55;;;;;;;3.42;3.12;;;;;;;11.87;80.29;100362.44;1709971;81;21025;-77
2022/10/05 07:33:46;;;;;;;5.00;2.70;;;;;;;11.95;80.49;100363.00;1716433;81;21089;-75
2022/10/05 07:39:33;;;;;;;2.75;2.47;;;;;;;12.05;77.96;100385.49;1774145;78;21142;-76
2022/10/05 07:42:33;;;;;;;5.85;3.00;;;;;;;12.14;78.00;100386.69;1772145;78;21572;-76
2022/10/05 07:45:25;;;;;;;3.92;2.90;;;;;;;12.14;77.60;100393.34;1762216;78;21526;-76
2022/10/05 07:47:58;;;;;;;4.10;2.95;;;;;;;12.07;77.80;100397.67;1770968;79;21010;-76
2022/10/05 07:50:44;;;;;;;4.62;2.80;;;;;;;12.03;77.93;100382.16;1772234;79;21038;-76
2022/10/05 07:53:42;;;;;;;4.50;3.00;;;;;;;12.03;77.93;100382.16;1764234;79;21145;-76
2022/10/05 07:56:26;;;;;;;4.53;3.15;;;;;;;12.12;77.36;100388.67;1767680;79;21058;-75
2022/10/05 07:59:08;;;;;;;4.97;3.05;;;;;;;12.04;76.83;100384.67;1768389;80;21014;-75
2022/10/05 08:01:36;;;;;;;4.08;3.08;;;;;;;12.03;77.32;100383.49;1774089;78;21001;-76
2022/10/05 08:04:16;;;;;;;3.95;3.10;;;;;;;12.07;77.11;100383.02;1768805;79;21034;-76
2022/10/05 08:07:01;;;;;;;5.05;2.85;;;;;;;12.31;77.14;100388.07;1775855;79;21526;-75
2022/10/05 08:09:59;;;;;;;4.72;3.50;;;;;;;12.53;76.08;100370.09;1770883;79;20982;-76
2022/10/05 08:13:00;;;;;;;5.00;3.17;;;;;;;12.68;75.56;100376.94;1758675;79;21148;-76
2022/10/05 08:15:32;;;;;;;4.53;3.55;;;;;;;12.74;75.05;100380.77;1774605;78;21073;-75
2022/10/05 08:18:04;;;;;;;3.75;2.90;;;;;;;12.78;73.77;100387.44;1775249;79;21517;-75
2022/10/05 08:20:52;;;;;;;5.42;2.70;;;;;;;12.82;73.72;100380.77;1766355;79;21118;-75
2022/10/05 08:23:29;;;;;;;2.87;2.40;;;;;;;12.99;72.84;100390.42;1774135;79;21506;-76
2022/10/05 08:26:12;;;;;;;5.65;2.90;;;;;;;13.06;71.99;100386.60;1762797;79;21066;-78
2022/10/05 08:28:45;;;;;;;4.35;2.55;;;;;;;13.10;70.73;100394.59;1770954;80;21092;-74
2022/10/05 08:31:25;;;;;;;6.15;2.65;;;;;;;13.12;69.48;100379.77;1779729;78;21049;-75
2022/10/05 08:34:23;;;;;;;4.15;2.70;;;;;;;13.08;69.84;100385.93;1765150;80;21117;-76
2022/10/05 08:37:05;;;;;;;4.67;2.40;;;;;;;13.08;70.02;100392.59;1773136;80;22248;-76
2022/10/05 08:39:39;;;;;;;3.72;2.55;;;;;;;13.01;70.46;100394.27;1771548;79;21077;-81
2022/10/05 08:42:30;;;;;;;4.35;2.33;;;;;;;12.98;69.97;100404.78;1769204;79;21085;-78
2022/10/05 08:45:14;;;;;;;5.10;2.60;;;;;;;12.92;70.43;100407.27;1770925;79;21050;-80
2022/10/05 08:48:16;;;;;;;3.58;2.67;;;;;;;13.03;71.33;100408.27;1766461;79;21310;-77
2022/10/05 08:51:11;;;;;;;2.92;2.60;;;;;;;13.21;71.61;100410.73;1777656;79;21097;-78
2022/10/05 08:53:58;;;;;;;4.42;2.90;;;;;;;13.33;70.69;100416.61;1770610;79;21148;-75
2022/10/05 08:56:45;;;;;;;4.20;2.80;;;;;;;13.41;70.04;100423.77;1765154;79;21059;-76
2022/10/05 09:00:01;;;;;;;4.37;2.87;;;;;;;13.39;69.51;100420.44;1767270;79;21014;-75
2022/10/05 09:03:20;;;;;;;3.37;2.92;;;;;;;13.26;69.49;100423.59;1776515;79;21158;-75
2022/10/05 09:06:01;;;;;;;4.92;3.08;;;;;;;13.11;70.11;100428.77;1767449;79;20995;-75
2022/10/05 09:08:57;;;;;;;4.28;2.65;;;;;;;13.00;69.86;100431.28;1755625;79;21046;-77
2022/10/05 09:11:40;;;;;;;4.10;2.60;;;;;;;12.97;69.84;100431.61;1750421;79;21178;-76
2022/10/05 09:14:32;;;;;;;4.17;2.37;;;;;;;13.15;70.78;100434.95;1773804;79;21661;-76
2022/10/05 09:17:23;;;;;;;5.55;2.92;;;;;;;13.30;69.66;100431.11;1762671;78;21135;-78
2022/10/05 09:19:58;;;;;;;4.45;2.52;;;;;;;13.33;70.14;100428.11;1773549;79;21022;-81
2022/10/05 09:22:46;;;;;;;3.98;2.20;;;;;;;13.47;68.95;100431.92;1776628;79;21003;-77
2022/10/05 09:25:22;;;;;;;3.85;2.33;;;;;;;13.67;68.04;100423.52;1703600;81;21062;-77
2022/10/05 09:27:53;;;;;;;2.40;2.20;;;;;;;13.98;68.06;100428.09;1770204;79;21057;-78
2022/10/05 09:30:27;;;;;;;4.72;2.33;;;;;;;14.42;65.06;100416.33;1771873;79;21092;-77
2022/10/05 09:33:47;;;;;;;2.77;2.20;;;;;;;14.75;64.68;100421.48;1770798;79;21546;-77
2022/10/05 09:36:55;;;;;;;3.87;2.52;;;;;;;14.97;65.38;100427.84;1761389;80;20983;-78
2022/10/05 09:39:57;;;;;;;3.72;2.33;;;;;;;15.10;64.03;100425.39;1770412;79;21058;-75
2022/10/05 09:42:46;;;;;;;4.67;2.77;;;;;;;15.33;63.73;100424.50;1771042;79;21349;-76
2022/10/05 09:45:34;;;;;;;2.42;2.22;;;;;;;15.47;62.02;100432.22;1760873;79;21278;-79
2022/10/05 09:48:22;;;;;;;5.95;3.95;;;;;;;15.47;61.94;100427.72;1772676;79;21106;-76
2022/10/05 09:51:19;;;;;;;3.70;2.72;;;;;;;15.54;63.99;100433.98;1762465;79;21573;-77
2022/10/05 09:54:32;;;;;;;3.27;2.98;;;;;;;15.82;62.60;100426.69;1768285;79;21006;-78
2022/10/05 09:57:39;;;;;;;3.98;2.90;;;;;;;16.02;61.46;100434.98;1765506;79;20963;-80
2022/10/05 10:00:25;;;;;;;3.12;2.70;;;;;;;15.98;60.53;100436.89;1750774;79;21054;-80
2022/10/05 10:03:04;;;;;;;3.85;2.85;;;;;;;15.84;61.73;100432.69;1774314;79;21034;-80
2022/10/05 10:05:52;;;;;;;4.75;3.00;;;;;;;15.94;61.36;100429.73;1772775;79;21034;-80
2022/10/05 10:08:33;;;;;;;4.28;3.02;;;;;;;16.29;61.94;100431.28;1771072;79;21636;-79
2022/10/05 10:11:09;;;;;;;4.03;3.10;;;;;;;16.73;61.62;100432.14;1774317;79;21076;-80
2022/10/05 10:13:55;;;;;;;4.75;2.87;;;;;;;17.08;59.07;100423.21;1772274;79;21436;-80
2022/10/05 10:16:49;;;;;;;5.97;3.00;;;;;;;17.21;58.64;100429.70;1773961;79;21034;-82
2022/10/05 10:19:37;;;;;;;4.03;2.90;;;;;;;17.17;58.50;100431.97;1767730;79;21057;-85
2022/10/05 10:22:24;;;;;;;5.75;3.17;;;;;;;17.03;58.69;100436.38;1776151;79;21030;-83
2022/10/05 10:25:33;;;;;;;5.10;2.70;;;;;;;16.93;58.28;100433.72;1770392;79;20995;-86
2022/10/05 10:28:45;;;;;;;3.60;2.42;;;;;;;16.83;58.85;100439.41;1761598;80;21165;-85
2022/10/05 10:32:01;;;;;;;3.70;2.90;;;;;;;16.72;58.81;100442.05;1768920;80;21073;-84
2022/10/05 10:34:54;;;;;;;4.15;2.80;;;;;;;16.53;59.54;100446.18;1779252;79;21128;-83
2022/10/05 10:37:56;;;;;;;4.95;2.67;;;;;;;16.41;60.47;100447.70;1766838;79;21061;-85
2022/10/05 10:40:53;;;;;;;3.70;2.40;;;;;;;16.44;59.65;100438.78;1779864;79;21042;-85
2022/10/05 10:43:39;;;;;;;3.83;2.80;;;;;;;16.17;59.73;100445.69;1738996;81;21239;-83
2022/10/05 10:46:27;;;;;;;4.37;2.72;;;;;;;15.85;60.67;100449.59;1765385;78;20955;-84
2022/10/05 10:49:32;;;;;;;2.62;2.37;;;;;;;15.63;61.49;100444.63;1779890;79;21029;-84
2022/10/05 10:52:55;;;;;;;4.90;2.98;;;;;;;15.44;61.41;100446.81;1764929;80;21368;-85
2022/10/05 10:56:06;;;;;;;6.65;2.90;;;;;;;15.26;62.19;100440.95;1766385;78;20924;-85
2022/10/05 10:59:04;;;;;;;5.00;2.98;;;;;;;15.08;62.28;100446.13;1772291;78;21544;-87
2022/10/05 11:02:22;;;;;;;3.70;3.00;;;;;;;14.93;62.46;100442.09;1774359;80;20994;-88
2022/10/05 11:05:00;;;;;;;3.05;2.75;;;;;;;14.86;63.08;100447.82;1780420;79;21042;-84
2022/10/05 11:08:06;;;;;;;3.30;2.42;;;;;;;14.86;63.01;100444.32;1778838;79;21061;-86
2022/10/05 11:11:21;;;;;;;3.55;2.40;;;;;;;14.85;63.29;100435.95;1766747;79;21517;-83
2022/10/05 11:14:05;;;;;;;4.12;2.50;;;;;;;14.86;63.11;100435.78;1757760;78;21557;-80
2022/10/05 11:16:40;;;;;;;3.17;2.52;;;;;;;14.78;63.12;100439.04;1771672;79;21080;-80
2022/10/05 11:19:34;;;;;;;2.60;2.40;;;;;;;14.67;63.34;100441.61;1767536;79;21050;-75
2022/10/05 11:22:22;;;;;;;2.72;2.02;;;;;;;14.53;63.82;100433.30;1768716;79;21040;-75
2022/10/05 11:25:28;;;;;;;5.08;2.45;;;;;;;14.41;63.97;100438.73;1775530;79;21081;-75
2022/10/05 11:28:09;;;;;;;4.47;2.30;;;;;;;14.31;64.39;100439.45;1761890;79;21733;-74
2022/10/05 11:31:11;;;;;;;6.50;2.85;;;;;;;14.14;64.47;100443.55;1774329;79;20999;-74
2022/10/05 11:34:23;;;;;;;4.53;2.33;;;;;;;14.03;65.15;100437.77;1775536;80;21097;-74
2022/10/05 11:37:17;;;;;;;4.72;2.40;;;;;;;13.93;65.44;100441.47;1772663;79;20995;-74
2022/10/05 11:40:15;;;;;;;4.50;2.60;;;;;;;13.84;65.99;100436.33;1778881;79;22601;-76
2022/10/05 11:43:00;;;;;;;4.87;2.52;;;;;;;13.76;65.95;100441.19;1771103;80;21747;-73
2022/10/05 11:45:40;;;;;;;3.27;2.70;;;;;;;13.64;66.40;100446.58;1748462;80;21004;-75
2022/10/05 11:48:45;;;;;;;3.87;2.55;;;;;;;13.53;67.02;100445.09;1768824;79;21042;-79
2022/10/05 11:52:06;;;;;;;5.08;2.30;;;;;;;13.48;67.26;100441.61;1780575;80;21601;-82
2022/10/05 11:55:18;;;;;;;2.75;2.30;;;;;;;13.45;67.44;100447.27;1776656;80;21085;-77
2022/10/05 11:58:00;;;;;;;3.37;2.50;;;;;;;13.43;67.57;100452.46;1771021;80;21106;-77
2022/10/05 12:00:39;;;;;;;4.62;2.75;;;;;;;13.41;67.56;100451.28;1773235;79;20995;-77
2022/10/05 12:03:47;;;;;;;4.72;2.75;;;;;;;13.39;67.08;100449.80;1760975;78;21053;-77
2022/10/05 12:06:39;;;;;;;4.40;2.67;;;;;;;13.33;66.73;100462.80;1703746;82;21070;-77
2022/10/05 12:09:27;;;;;;;5.37;2.65;;;;;;;13.30;67.29;100459.64;1719931;81;21015;-80
2022/10/05 12:12:15;;;;;;;3.50;2.50;;;;;;;13.27;67.22;100462.12;1722888;80;21162;-78
2022/10/05 12:14:52;;;;;;;7.00;3.00;;;;;;;13.23;67.31;100469.27;1725717;81;21042;-80
2022/10/05 12:17:30;;;;;;;3.52;2.33;;;;;;;13.18;67.36;100467.95;1723407;80;21066;-79
2022/10/05 12:20:04;;;;;;;3.50;2.30;;;;;;;13.15;67.25;100480.30;1710323;82;21078;-80
2022/10/05 12:22:39;;;;;;;5.08;2.08;;;;;;;13.12;67.54;100489.95;1762791;79;20971;-79
2022/10/05 12:25:38;;;;;;;2.90;2.37;;;;;;;13.09;67.66;100483.61;1781183;80;21515;-78
2022/10/05 12:28:09;;;;;;;2.27;2.08;;;;;;;13.08;67.67;100491.30;1768912;79;21504;-79
2022/10/05 12:31:03;;;;;;;2.98;2.20;;;;;;;13.08;68.13;100491.30;1780222;79;21006;-79
2022/10/05 12:33:47;;;;;;;5.70;2.00;;;;;;;13.22;68.07;100496.97;1762741;80;21045;-78
2022/10/05 12:36:19;;;;;;;3.58;2.45;;;;;;;13.28;67.11;100501.13;1774463;78;21014;-78
2022/10/05 12:39:15;;;;;;;4.40;2.52;;;;;;;13.25;67.21;100500.63;1783863;79;21051;-79
2022/10/05 12:41:54;;;;;;;2.92;2.10;;;;;;;13.23;67.38;100502.14;1760903;80;21025;-78
2022/10/05 12:44:45;;;;;;;4.33;2.20;;;;;;;13.21;67.49;100508.63;1753947;80;21101;-78
2022/10/05 12:47:37;;;;;;;4.67;2.05;;;;;;;13.16;67.74;100501.14;1783648;79;21330;-79
2022/10/05 12:50:40;;;;;;;2.40;2.00;;;;;;;13.12;68.00;100501.96;1742308;80;21052;-79
2022/10/05 12:53:19;;;;;;;3.60;2.30;;;;;;;13.11;68.30;100506.95;1772616;78;21135;-77
2022/10/05 12:55:53;;;;;;;7.22;2.92;;;;;;;13.09;68.39;100512.95;1754699;80;21013;-77
2022/10/05 12:58:53;;;;;;;5.95;3.72;;;;;;;13.06;68.76;100506.63;1786501;78;21037;-76
2022/10/05 13:01:37;;;;;;;5.62;2.30;;;;;;;13.17;69.14;100502.78;1780323;79;21033;-77
2022/10/05 13:04:42;;;;;;;4.75;2.90;;;;;;;13.26;68.59;100502.30;1784939;80;21022;-79
2022/10/05 13:07:37;;;;;;;3.95;2.15;;;;;;;13.23;68.35;100505.29;1776607;80;21054;-80
2022/10/05 13:10:37;;;;;;;3.90;2.37;;;;;;;13.21;68.43;100513.97;1762950;80;21076;-77
2022/10/05 13:13:52;;;;;;;4.60;2.60;;;;;;;13.20;68.39;100508.31;1785413;80;21068;-79